Slick, Oklahoma
Current Conditions -  °F | °C
As of 2:15 PM on Sunday 21 Dec 2014 (Local Time) from KOKM Reporting Station
Overcast Overcast  
Wind Chill: 40°   Ceiling: 1800
Heat Index: 47°   Visibility: 10mi
Dew Point: 42°   Wind: 16mph
Humidity: 81%   Direction: 140°SE
Pressure: 29.88"   Gusts: 22mph
Location:  35.78°N, 96.27°W
Report Text: KOKM 212015Z AUTO 14014G19KT 10SM OVC018 08/05 A2988 RMK AO2 T00830053
Loading
Personal Weather Stations






























Interactive Weather Map New forecast layout! Learn more

10-Day Weather Forecast

Advertisements
Track Severe Weather on mobile